sensor_id;sensor_type;location;lat;lon;timestamp;temperature;humidity
12233;DHT22;6179;51.748;8.728;2022-09-09T00:02:37;17.40;92.80
12233;DHT22;6179;51.748;8.728;2022-09-09T00:08:53;17.10;93.90
12233;DHT22;6179;51.748;8.728;2022-09-09T00:15:14;17.00;94.50
12233;DHT22;6179;51.748;8.728;2022-09-09T00:21:36;17.00;94.50
12233;DHT22;6179;51.748;8.728;2022-09-09T00:27:45;17.00;95.10
12233;DHT22;6179;51.748;8.728;2022-09-09T00:33:49;17.20;94.80
12233;DHT22;6179;51.748;8.728;2022-09-09T00:39:53;17.50;93.80
12233;DHT22;6179;51.748;8.728;2022-09-09T00:59:50;17.60;97.50
12233;DHT22;6179;51.748;8.728;2022-09-09T01:12:43;17.20;98.30
12233;DHT22;6179;51.748;8.728;2022-09-09T01:19:16;17.00;98.30
12233;DHT22;6179;51.748;8.728;2022-09-09T01:25:30;17.10;98.30
12233;DHT22;6179;51.748;8.728;2022-09-09T01:31:54;16.90;98.30
12233;DHT22;6179;51.748;8.728;2022-09-09T01:38:02;17.00;98.30
12233;DHT22;6179;51.748;8.728;2022-09-09T01:44:04;16.90;98.30
12233;DHT22;6179;51.748;8.728;2022-09-09T01:50:08;17.10;98.30
12233;DHT22;6179;51.748;8.728;2022-09-09T02:02:32;17.10;98.30
12233;DHT22;6179;51.748;8.728;2022-09-09T02:08:53;17.00;98.30
12233;DHT22;6179;51.748;8.728;2022-09-09T02:15:05;16.70;98.30
12233;DHT22;6179;51.748;8.728;2022-09-09T02:21:13;16.50;98.30
12233;DHT22;6179;51.748;8.728;2022-09-09T02:27:16;16.40;98.30
12233;DHT22;6179;51.748;8.728;2022-09-09T02:33:17;16.30;98.30
12233;DHT22;6179;51.748;8.728;2022-09-09T02:39:19;16.40;98.30
12233;DHT22;6179;51.748;8.728;2022-09-09T02:45:25;16.50;98.30
12233;DHT22;6179;51.748;8.728;2022-09-09T02:52:07;16.60;98.30
12233;DHT22;6179;51.748;8.728;2022-09-09T02:58:15;16.40;98.30
12233;DHT22;6179;51.748;8.728;2022-09-09T03:04:17;16.60;98.30
12233;DHT22;6179;51.748;8.728;2022-09-09T03:10:18;17.10;98.30
12233;DHT22;6179;51.748;8.728;2022-09-09T03:16:18;16.80;98.30
12233;DHT22;6179;51.748;8.728;2022-09-09T03:22:19;16.60;98.30
12233;DHT22;6179;51.748;8.728;2022-09-09T03:28:21;16.70;98.30
12233;DHT22;6179;51.748;8.728;2022-09-09T03:34:23;16.60;98.30
12233;DHT22;6179;51.748;8.728;2022-09-09T03:40:24;16.40;98.30
12233;DHT22;6179;51.748;8.728;2022-09-09T03:46:25;16.40;98.30
12233;DHT22;6179;51.748;8.728;2022-09-09T03:52:26;16.60;98.30
12233;DHT22;6179;51.748;8.728;2022-09-09T03:58:28;16.80;98.30
12233;DHT22;6179;51.748;8.728;2022-09-09T04:04:28;16.60;98.30
12233;DHT22;6179;51.748;8.728;2022-09-09T04:10:29;16.70;98.30
12233;DHT22;6179;51.748;8.728;2022-09-09T04:16:30;16.60;98.30
12233;DHT22;6179;51.748;8.728;2022-09-09T04:22:31;16.60;98.30
12233;DHT22;6179;51.748;8.728;2022-09-09T04:28:34;16.60;98.30
12233;DHT22;6179;51.748;8.728;2022-09-09T04:34:36;16.60;98.30
12233;DHT22;6179;51.748;8.728;2022-09-09T04:40:37;16.80;98.30
12233;DHT22;6179;51.748;8.728;2022-09-09T04:46:43;17.00;98.30
12233;DHT22;6179;51.748;8.728;2022-09-09T04:52:44;16.60;98.30
12233;DHT22;6179;51.748;8.728;2022-09-09T04:58:45;16.30;98.30
12233;DHT22;6179;51.748;8.728;2022-09-09T05:04:46;16.10;98.30
12233;DHT22;6179;51.748;8.728;2022-09-09T05:10:47;16.00;98.30
12233;DHT22;6179;51.748;8.728;2022-09-09T05:16:47;16.20;98.30
12233;DHT22;6179;51.748;8.728;2022-09-09T05:22:55;16.20;98.30
12233;DHT22;6179;51.748;8.728;2022-09-09T05:28:57;16.10;98.30
12233;DHT22;6179;51.748;8.728;2022-09-09T05:34:59;16.20;98.30
12233;DHT22;6179;51.748;8.728;2022-09-09T05:41:01;16.30;98.30
12233;DHT22;6179;51.748;8.728;2022-09-09T05:47:03;16.50;98.30
12233;DHT22;6179;51.748;8.728;2022-09-09T05:53:04;16.70;98.30
12233;DHT22;6179;51.748;8.728;2022-09-09T05:59:05;17.00;98.30
12233;DHT22;6179;51.748;8.728;2022-09-09T06:05:07;17.30;98.30
12233;DHT22;6179;51.748;8.728;2022-09-09T06:11:10;17.50;98.30
12233;DHT22;6179;51.748;8.728;2022-09-09T06:17:16;17.50;98.30
12233;DHT22;6179;51.748;8.728;2022-09-09T06:23:17;17.60;98.30
12233;DHT22;6179;51.748;8.728;2022-09-09T06:29:18;17.70;98.30
12233;DHT22;6179;51.748;8.728;2022-09-09T06:35:18;17.80;98.30
12233;DHT22;6179;51.748;8.728;2022-09-09T06:41:26;18.10;98.30
12233;DHT22;6179;51.748;8.728;2022-09-09T06:47:28;18.10;97.90
12233;DHT22;6179;51.748;8.728;2022-09-09T06:53:31;18.10;97.90
12233;DHT22;6179;51.748;8.728;2022-09-09T06:59:34;18.20;96.50
12233;DHT22;6179;51.748;8.728;2022-09-09T07:05:35;18.20;96.80
12233;DHT22;6179;51.748;8.728;2022-09-09T07:11:40;18.50;95.80
12233;DHT22;6179;51.748;8.728;2022-09-09T07:17:53;18.30;97.50
12233;DHT22;6179;51.748;8.728;2022-09-09T07:24:01;18.60;94.90
12233;DHT22;6179;51.748;8.728;2022-09-09T07:30:03;19.00;95.00
12233;DHT22;6179;51.748;8.728;2022-09-09T07:36:06;18.80;95.10
12233;DHT22;6179;51.748;8.728;2022-09-09T07:42:09;18.80;94.40
12233;DHT22;6179;51.748;8.728;2022-09-09T07:48:11;19.10;93.50
12233;DHT22;6179;51.748;8.728;2022-09-09T07:54:14;19.40;91.70
12233;DHT22;6179;51.748;8.728;2022-09-09T08:00:17;19.40;92.90
12233;DHT22;6179;51.748;8.728;2022-09-09T08:06:19;19.70;92.00
12233;DHT22;6179;51.748;8.728;2022-09-09T08:12:20;19.20;91.80
12233;DHT22;6179;51.748;8.728;2022-09-09T08:18:21;18.60;95.50
12233;DHT22;6179;51.748;8.728;2022-09-09T08:24:23;18.50;94.40
12233;DHT22;6179;51.748;8.728;2022-09-09T08:30:24;18.10;97.90
12233;DHT22;6179;51.748;8.728;2022-09-09T08:36:27;18.50;97.50
12233;DHT22;6179;51.748;8.728;2022-09-09T08:48:56;18.30;95.30
12233;DHT22;6179;51.748;8.728;2022-09-09T09:15:25;19.40;91.40
12233;DHT22;6179;51.748;8.728;2022-09-09T09:28:17;20.30;88.80
12233;DHT22;6179;51.748;8.728;2022-09-09T09:34:24;19.70;89.30
12233;DHT22;6179;51.748;8.728;2022-09-09T09:40:31;20.40;87.20
12233;DHT22;6179;51.748;8.728;2022-09-09T09:46:32;20.40;88.40
12233;DHT22;6179;51.748;8.728;2022-09-09T09:52:36;20.50;86.40
12233;DHT22;6179;51.748;8.728;2022-09-09T09:58:51;21.40;82.50
12233;DHT22;6179;51.748;8.728;2022-09-09T10:11:47;20.60;80.60
12233;DHT22;6179;51.748;8.728;2022-09-09T10:51:13;22.00;74.90
12233;DHT22;6179;51.748;8.728;2022-09-09T10:57:46;21.40;76.80
12233;DHT22;6179;51.748;8.728;2022-09-09T11:04:16;21.40;75.90
12233;DHT22;6179;51.748;8.728;2022-09-09T11:17:04;22.20;76.70
12233;DHT22;6179;51.748;8.728;2022-09-09T11:23:38;21.90;74.30
12233;DHT22;6179;51.748;8.728;2022-09-09T11:36:30;22.30;72.30
12233;DHT22;6179;51.748;8.728;2022-09-09T11:42:43;22.40;73.70
12233;DHT22;6179;51.748;8.728;2022-09-09T11:48:45;23.10;71.90
12233;DHT22;6179;51.748;8.728;2022-09-09T12:01:34;23.30;69.70
12233;DHT22;6179;51.748;8.728;2022-09-09T12:07:39;22.90;69.00
12233;DHT22;6179;51.748;8.728;2022-09-09T12:13:56;22.50;71.60
12233;DHT22;6179;51.748;8.728;2022-09-09T12:20:09;23.10;71.00
12233;DHT22;6179;51.748;8.728;2022-09-09T12:26:52;22.70;69.50
12233;DHT22;6179;51.748;8.728;2022-09-09T12:33:08;22.80;71.10
12233;DHT22;6179;51.748;8.728;2022-09-09T12:39:37;22.70;69.00
12233;DHT22;6179;51.748;8.728;2022-09-09T12:45:43;23.00;68.90
12233;DHT22;6179;51.748;8.728;2022-09-09T12:51:45;23.00;69.90
12233;DHT22;6179;51.748;8.728;2022-09-09T12:57:46;23.10;67.40
12233;DHT22;6179;51.748;8.728;2022-09-09T13:03:52;22.80;69.60
12233;DHT22;6179;51.748;8.728;2022-09-09T13:09:54;22.20;69.10
12233;DHT22;6179;51.748;8.728;2022-09-09T13:16:02;22.20;70.50
12233;DHT22;6179;51.748;8.728;2022-09-09T13:22:20;21.90;71.20
12233;DHT22;6179;51.748;8.728;2022-09-09T13:28:39;22.70;70.90
12233;DHT22;6179;51.748;8.728;2022-09-09T13:34:54;23.40;68.00
12233;DHT22;6179;51.748;8.728;2022-09-09T13:41:08;23.00;67.50
12233;DHT22;6179;51.748;8.728;2022-09-09T13:47:33;23.90;67.60
12233;DHT22;6179;51.748;8.728;2022-09-09T13:53:40;23.80;64.40
12233;DHT22;6179;51.748;8.728;2022-09-09T13:59:41;23.30;66.00
12233;DHT22;6179;51.748;8.728;2022-09-09T14:05:44;24.10;64.70
12233;DHT22;6179;51.748;8.728;2022-09-09T14:11:46;24.00;63.80
12233;DHT22;6179;51.748;8.728;2022-09-09T14:17:46;23.40;63.90
12233;DHT22;6179;51.748;8.728;2022-09-09T14:23:48;23.30;65.20
12233;DHT22;6179;51.748;8.728;2022-09-09T14:29:49;22.90;66.30
12233;DHT22;6179;51.748;8.728;2022-09-09T14:36:04;23.00;67.40
12233;DHT22;6179;51.748;8.728;2022-09-09T14:42:05;23.00;64.90
12233;DHT22;6179;51.748;8.728;2022-09-09T14:48:06;23.10;66.10
12233;DHT22;6179;51.748;8.728;2022-09-09T14:54:07;23.30;66.70
12233;DHT22;6179;51.748;8.728;2022-09-09T15:00:09;23.10;66.10
12233;DHT22;6179;51.748;8.728;2022-09-09T15:06:13;23.00;67.50
12233;DHT22;6179;51.748;8.728;2022-09-09T15:12:15;22.70;67.10
12233;DHT22;6179;51.748;8.728;2022-09-09T15:18:19;22.80;67.30
12233;DHT22;6179;51.748;8.728;2022-09-09T15:24:20;23.00;66.20
12233;DHT22;6179;51.748;8.728;2022-09-09T15:30:20;22.60;68.70
12233;DHT22;6179;51.748;8.728;2022-09-09T15:36:24;22.30;69.40
12233;DHT22;6179;51.748;8.728;2022-09-09T15:42:25;22.20;68.30
12233;DHT22;6179;51.748;8.728;2022-09-09T15:48:30;21.90;69.20
12233;DHT22;6179;51.748;8.728;2022-09-09T15:54:35;22.50;68.30
12233;DHT22;6179;51.748;8.728;2022-09-09T16:00:39;21.90;70.00
12233;DHT22;6179;51.748;8.728;2022-09-09T16:06:40;22.30;69.00
12233;DHT22;6179;51.748;8.728;2022-09-09T16:12:41;22.10;70.10
12233;DHT22;6179;51.748;8.728;2022-09-09T16:18:43;22.30;70.00
12233;DHT22;6179;51.748;8.728;2022-09-09T16:24:48;22.20;69.90
12233;DHT22;6179;51.748;8.728;2022-09-09T16:30:49;22.10;73.90
12233;DHT22;6179;51.748;8.728;2022-09-09T16:36:50;21.60;75.90
12233;DHT22;6179;51.748;8.728;2022-09-09T16:42:51;20.40;80.40
12233;DHT22;6179;51.748;8.728;2022-09-09T16:48:52;20.60;81.00
12233;DHT22;6179;51.748;8.728;2022-09-09T16:54:55;20.40;81.50
12233;DHT22;6179;51.748;8.728;2022-09-09T17:01:00;20.40;82.80
12233;DHT22;6179;51.748;8.728;2022-09-09T17:07:02;19.60;85.40
12233;DHT22;6179;51.748;8.728;2022-09-09T17:13:03;19.00;87.70
12233;DHT22;6179;51.748;8.728;2022-09-09T17:19:04;19.40;86.30
12233;DHT22;6179;51.748;8.728;2022-09-09T17:25:06;19.00;89.20
12233;DHT22;6179;51.748;8.728;2022-09-09T17:31:10;18.90;89.30
12233;DHT22;6179;51.748;8.728;2022-09-09T17:37:12;18.80;89.70
12233;DHT22;6179;51.748;8.728;2022-09-09T17:43:13;18.90;89.90
12233;DHT22;6179;51.748;8.728;2022-09-09T17:49:16;18.90;89.70
12233;DHT22;6179;51.748;8.728;2022-09-09T17:55:23;19.10;91.80
12233;DHT22;6179;51.748;8.728;2022-09-09T18:01:28;18.70;91.90
12233;DHT22;6179;51.748;8.728;2022-09-09T18:07:30;18.30;94.20
12233;DHT22;6179;51.748;8.728;2022-09-09T18:13:31;18.50;93.70
12233;DHT22;6179;51.748;8.728;2022-09-09T18:19:32;18.40;92.30
12233;DHT22;6179;51.748;8.728;2022-09-09T18:25:39;18.30;94.20
12233;DHT22;6179;51.748;8.728;2022-09-09T18:31:41;18.30;93.50
12233;DHT22;6179;51.748;8.728;2022-09-09T18:37:42;18.40;95.20
12233;DHT22;6179;51.748;8.728;2022-09-09T18:43:43;18.20;96.00
12233;DHT22;6179;51.748;8.728;2022-09-09T18:49:44;17.50;97.80
12233;DHT22;6179;51.748;8.728;2022-09-09T18:55:46;17.70;97.80
12233;DHT22;6179;51.748;8.728;2022-09-09T19:01:58;17.80;98.10
12233;DHT22;6179;51.748;8.728;2022-09-09T19:07:59;17.70;97.60
12233;DHT22;6179;51.748;8.728;2022-09-09T19:14:02;17.40;98.30
12233;DHT22;6179;51.748;8.728;2022-09-09T19:20:05;17.40;98.30
12233;DHT22;6179;51.748;8.728;2022-09-09T19:26:11;17.40;98.30
12233;DHT22;6179;51.748;8.728;2022-09-09T19:32:16;17.20;98.30
12233;DHT22;6179;51.748;8.728;2022-09-09T19:38:17;16.90;98.30
12233;DHT22;6179;51.748;8.728;2022-09-09T19:44:18;17.00;98.30
12233;DHT22;6179;51.748;8.728;2022-09-09T19:50:19;17.30;98.30
12233;DHT22;6179;51.748;8.728;2022-09-09T19:56:21;17.20;98.30
12233;DHT22;6179;51.748;8.728;2022-09-09T20:02:23;17.30;98.30
12233;DHT22;6179;51.748;8.728;2022-09-09T20:08:24;17.30;98.30
12233;DHT22;6179;51.748;8.728;2022-09-09T20:14:26;17.40;98.10
12233;DHT22;6179;51.748;8.728;2022-09-09T20:20:28;17.30;98.00
12233;DHT22;6179;51.748;8.728;2022-09-09T20:26:29;17.10;98.30
12233;DHT22;6179;51.748;8.728;2022-09-09T20:32:35;17.10;97.90
12233;DHT22;6179;51.748;8.728;2022-09-09T20:38:49;16.90;98.30
12233;DHT22;6179;51.748;8.728;2022-09-09T20:44:52;16.70;98.30
12233;DHT22;6179;51.748;8.728;2022-09-09T20:50:53;16.60;98.30
12233;DHT22;6179;51.748;8.728;2022-09-09T20:56:55;16.60;98.30
12233;DHT22;6179;51.748;8.728;2022-09-09T21:02:57;16.90;97.60
12233;DHT22;6179;51.748;8.728;2022-09-09T21:08:58;16.90;98.00
12233;DHT22;6179;51.748;8.728;2022-09-09T21:14:58;16.60;98.30
12233;DHT22;6179;51.748;8.728;2022-09-09T21:21:01;16.70;98.30
12233;DHT22;6179;51.748;8.728;2022-09-09T21:27:03;16.80;97.30
12233;DHT22;6179;51.748;8.728;2022-09-09T21:33:04;16.90;96.60
12233;DHT22;6179;51.748;8.728;2022-09-09T21:39:05;16.70;97.60
12233;DHT22;6179;51.748;8.728;2022-09-09T21:45:06;16.80;97.10
12233;DHT22;6179;51.748;8.728;2022-09-09T21:51:10;16.50;98.00
12233;DHT22;6179;51.748;8.728;2022-09-09T21:57:16;16.40;98.30
12233;DHT22;6179;51.748;8.728;2022-09-09T22:03:17;16.60;97.50
12233;DHT22;6179;51.748;8.728;2022-09-09T22:09:21;16.40;98.20
12233;DHT22;6179;51.748;8.728;2022-09-09T22:15:22;16.30;98.30
12233;DHT22;6179;51.748;8.728;2022-09-09T22:21:25;16.40;98.30
12233;DHT22;6179;51.748;8.728;2022-09-09T22:27:27;16.40;98.30
12233;DHT22;6179;51.748;8.728;2022-09-09T22:33:28;16.30;98.30
12233;DHT22;6179;51.748;8.728;2022-09-09T22:39:32;16.40;98.30
12233;DHT22;6179;51.748;8.728;2022-09-09T22:45:36;16.20;98.30
12233;DHT22;6179;51.748;8.728;2022-09-09T22:51:37;16.70;97.10
12233;DHT22;6179;51.748;8.728;2022-09-09T22:57:39;16.60;97.30
12233;DHT22;6179;51.748;8.728;2022-09-09T23:03:42;16.90;96.10
12233;DHT22;6179;51.748;8.728;2022-09-09T23:09:46;16.60;97.00
12233;DHT22;6179;51.748;8.728;2022-09-09T23:15:47;16.70;96.40
12233;DHT22;6179;51.748;8.728;2022-09-09T23:21:48;16.50;97.00
12233;DHT22;6179;51.748;8.728;2022-09-09T23:27:50;16.30;98.10
12233;DHT22;6179;51.748;8.728;2022-09-09T23:33:51;16.10;98.30
12233;DHT22;6179;51.748;8.728;2022-09-09T23:39:53;16.20;98.30
12233;DHT22;6179;51.748;8.728;2022-09-09T23:45:55;16.20;97.90
12233;DHT22;6179;51.748;8.728;2022-09-09T23:52:01;16.20;98.30
12233;DHT22;6179;51.748;8.728;2022-09-09T23:58:04;16.40;97.30
